Terminal Aerodrome Forecast
Issued by NWS Sterling, VA

Current Version | Previous Version | Graphics & Text | Print | Product List | Glossary On
Versions: 1 2 3 4 5 6 7 8 9 10 11 12 13 14 15 16 17 18
467
FTUS41 KLWX 190858 AAA
TAFIAD
TAF AMD
KIAD 190858Z 1909/2012 00000KT 6SM MIFG SKC
     FM191100 VRB03KT P6SM SKC
     FM191400 26004KT P6SM SCT050
     FM200000 19004KT P6SM SKC=

USA.gov is the U.S. government's official web portal to all federal, state and local government web resources and services.